First Ferry Vi — VRS4293 — position and weather

sailwx.info

Track history (hours):
 
Tides and Currents Weather Stations Pressure Air Temp Water Temp Dewpoint Dewpoint Depression Visibility Wind Speed Wind Dir Waves Ship Positions

First Ferry Vi

Last reported at 2016-Aug-27 15:34 UTC. Time now 2016-Aug-27 22:15 UTC.
Position N 22°17' E 114°10'.

Length 36 m; draft 1.8 m.

Type: Tug. MMSI: 477995028.

Date/timePositionNaut miles runAvg speedWind from/ knotsBaromVisibWave heightAir tempDewpointWater temp
2016-Aug-27 15:34N 22°17' E 114°10'3 2.1
2016-Aug-27 14:13N 22°17' E 114°07'3 1.1
2016-Aug-27 11:33N 22°17' E 114°10'2 1.8
2016-Aug-27 10:12N 22°17' E 114°07'3 4.5
2016-Aug-27 09:33N 22°17' E 114°10'1 0.3
2016-Aug-27 07:33N 22°17' E 114°10'1 0.3
2016-Aug-27 03:33N 22°18' E 114°11'1 0.5
2016-Aug-27 01:33N 22°17' E 114°10'2 1.9
2016-Aug-27 00:32N 22°19' E 114°09'3 1.9
2016-Aug-26 23:10N 22°17' E 114°07'2 0.3
2016-Aug-26 15:33N 22°17' E 114°10'3 1.9
2016-Aug-26 14:12N 22°17' E 114°07'3 3.2
2016-Aug-26 13:25N 22°17' E 114°10'0 0.0
2016-Aug-26 12:33N 22°17' E 114°10'2 2.1
2016-Aug-26 11:26N 22°17' E 114°07'0 0.4
2016-Aug-26 10:11N 22°18' E 114°08'2 0.3
2016-Aug-26 03:33N 22°17' E 114°10'0 0.1
2016-Aug-26 01:34N 22°17' E 114°10'2 1.8
2016-Aug-26 00:33N 22°19' E 114°09'3 1.9
2016-Aug-25 23:11N 22°17' E 114°07'3 0.3
2016-Aug-25 15:33N 22°17' E 114°10'3 1.8
2016-Aug-25 14:11N 22°17' E 114°07'2 1.5
2016-Aug-25 12:33N 22°17' E 114°10'2 2.0
2016-Aug-25 11:26N 22°18' E 114°07'0 0.3
2016-Aug-25 10:11N 22°18' E 114°08'2 0.2
2016-Aug-25 00:33N 22°19' E 114°09'2 1.7
2016-Aug-24 23:10N 22°17' E 114°07'3 0.3
2016-Aug-24 15:33N 22°17' E 114°10'3 1.9
2016-Aug-24 14:12N 22°17' E 114°07'3 3.4
2016-Aug-24 13:27N 22°17' E 114°10'0 0.2
2016-Aug-24 12:33N 22°17' E 114°10'2 1.8
2016-Aug-24 11:25N 22°18' E 114°07'0 0.1
2016-Aug-24 10:11N 22°18' E 114°08'1 2.3
2016-Aug-24 09:33N 22°18' E 114°09'1 0.1
2016-Aug-24 00:33N 22°19' E 114°09'2 1.6
2016-Aug-23 23:10N 22°17' E 114°07'2 0.3
2016-Aug-23 15:33N 22°17' E 114°10'3 2.0
2016-Aug-23 14:12N 22°18' E 114°07'3 1.6
2016-Aug-23 12:34N 22°17' E 114°10'2 1.7
2016-Aug-23 11:28N 22°18' E 114°08'0 0.1
2016-Aug-23 10:11N 22°18' E 114°07'2 2.8
2016-Aug-23 09:33N 22°18' E 114°09'0 0.1
2016-Aug-23 00:33N 22°19' E 114°09'2 1.3
2016-Aug-22 23:09N 22°18' E 114°08'2 0.3
2016-Aug-22 15:33N 22°17' E 114°10'2 1.3
2016-Aug-22 14:10N 22°18' E 114°08'2 2.9
2016-Aug-22 13:33N 22°17' E 114°10'0 0.1
2016-Aug-22 12:32N 22°17' E 114°10'3 2.3
2016-Aug-22 11:26N 22°17' E 114°07'1 0.7
2016-Aug-22 10:09N 22°18' E 114°08'2 0.2
2016-Aug-22 00:34N 22°19' E 114°09'2 1.6
2016-Aug-21 23:10N 22°18' E 114°07'2 0.3
2016-Aug-21 15:30N 22°17' E 114°10'0 0.0
2016-Aug-21 13:33N 22°17' E 114°10'0 0.0
2016-Aug-21 11:27N 22°17' E 114°10'0 0.0
2016-Aug-21 09:33N 22°17' E 114°10'0 0.0
2016-Aug-21 07:11N 22°17' E 114°10'0 0.0
2016-Aug-21 05:32N 22°17' E 114°10'2 1.5
2016-Aug-21 04:16N 22°18' E 114°08'2 0.5
2016-Aug-21 00:33N 22°17' E 114°10'2 1.2
2016-Aug-20 23:08N 22°18' E 114°08'2 0.2
2016-Aug-20 15:33N 22°17' E 114°10'2 1.6
2016-Aug-20 14:12N 22°18' E 114°07'1 1.3
2016-Aug-20 13:33N 22°18' E 114°08'1 0.6
2016-Aug-20 11:33N 22°17' E 114°10'2 1.3
2016-Aug-20 10:10N 22°18' E 114°08'2 3.6
2016-Aug-20 09:33N 22°17' E 114°10'0 0.2
2016-Aug-20 07:32N 22°17' E 114°10'3 1.8
2016-Aug-20 06:04N 22°17' E 114°07'3 5.8
2016-Aug-20 05:34N 22°17' E 114°10'0 0.1
2016-Aug-20 03:33N 22°17' E 114°10'0 0.0
2016-Aug-20 01:33N 22°17' E 114°10'2 1.8
2016-Aug-20 00:33N 22°19' E 114°09'2 1.4
2016-Aug-19 23:10N 22°18' E 114°08'2 0.3
2016-Aug-19 15:34N 22°17' E 114°10'2 1.7
2016-Aug-19 14:11N 22°17' E 114°07'2 1.4
2016-Aug-19 12:32N 22°17' E 114°10'3 2.4
2016-Aug-19 11:26N 22°17' E 114°07'4 0.6
2016-Aug-19 05:33N 22°17' E 114°11'1 0.5
2016-Aug-19 03:32N 22°17' E 114°10'0 0.2
2016-Aug-19 01:32N 22°17' E 114°10'1 1.5
2016-Aug-19 00:32N 22°18' E 114°09'2 1.3
2016-Aug-18 23:09N 22°18' E 114°08'2 0.3
2016-Aug-18 15:32N 22°17' E 114°10'3 2.0
2016-Aug-18 14:12N 22°17' E 114°07'3 4.1
2016-Aug-18 13:34N 22°17' E 114°10'0 0.0
2016-Aug-18 12:33N 22°17' E 114°10'2 2.0
2016-Aug-18 11:26N 22°18' E 114°07'0 0.4
2016-Aug-18 10:10N 22°18' E 114°08'2 3.1
2016-Aug-18 09:33N 22°19' E 114°09'1 0.3
2016-Aug-18 06:31N 22°20' E 114°09'0 0.0
2016-Aug-18 04:12N 22°20' E 114°09'1 0.3
2016-Aug-18 00:33N 22°19' E 114°09'2 1.4
2016-Aug-17 23:09N 22°18' E 114°07'  
Track history (hours):
 
Tides and Currents Weather Stations Pressure Air Temp Water Temp Dewpoint Dewpoint Depression Visibility Wind Speed Wind Dir Waves Ship Positions

First Ferry Vi

Last reported at 2016-Aug-27 15:34 UTC. Time now 2016-Aug-27 22:15 UTC.
Position N 22°17' E 114°10'.

Length 36 m; draft 1.8 m.

Type: Tug. MMSI: 477995028.

Date/timePositionNaut miles runAvg speedWind from/ knotsBaromVisibWave heightAir tempDewpointWater temp
2016-Aug-27 15:34N 22°17' E 114°10'3 2.1
2016-Aug-27 14:13N 22°17' E 114°07'3 1.1
2016-Aug-27 11:33N 22°17' E 114°10'2 1.8
2016-Aug-27 10:12N 22°17' E 114°07'3 4.5
2016-Aug-27 09:33N 22°17' E 114°10'1 0.3
2016-Aug-27 07:33N 22°17' E 114°10'1 0.3
2016-Aug-27 03:33N 22°18' E 114°11'1 0.5
2016-Aug-27 01:33N 22°17' E 114°10'2 1.9
2016-Aug-27 00:32N 22°19' E 114°09'3 1.9
2016-Aug-26 23:10N 22°17' E 114°07'2 0.3
2016-Aug-26 15:33N 22°17' E 114°10'3 1.9
2016-Aug-26 14:12N 22°17' E 114°07'3 3.2
2016-Aug-26 13:25N 22°17' E 114°10'0 0.0
2016-Aug-26 12:33N 22°17' E 114°10'2 2.1
2016-Aug-26 11:26N 22°17' E 114°07'0 0.4
2016-Aug-26 10:11N 22°18' E 114°08'2 0.3
2016-Aug-26 03:33N 22°17' E 114°10'0 0.1
2016-Aug-26 01:34N 22°17' E 114°10'2 1.8
2016-Aug-26 00:33N 22°19' E 114°09'3 1.9
2016-Aug-25 23:11N 22°17' E 114°07'3 0.3
2016-Aug-25 15:33N 22°17' E 114°10'3 1.8
2016-Aug-25 14:11N 22°17' E 114°07'2 1.5
2016-Aug-25 12:33N 22°17' E 114°10'2 2.0
2016-Aug-25 11:26N 22°18' E 114°07'0 0.3
2016-Aug-25 10:11N 22°18' E 114°08'2 0.2
2016-Aug-25 00:33N 22°19' E 114°09'2 1.7
2016-Aug-24 23:10N 22°17' E 114°07'3 0.3
2016-Aug-24 15:33N 22°17' E 114°10'3 1.9
2016-Aug-24 14:12N 22°17' E 114°07'3 3.4
2016-Aug-24 13:27N 22°17' E 114°10'0 0.2
2016-Aug-24 12:33N 22°17' E 114°10'2 1.8
2016-Aug-24 11:25N 22°18' E 114°07'0 0.1
2016-Aug-24 10:11N 22°18' E 114°08'1 2.3
2016-Aug-24 09:33N 22°18' E 114°09'1 0.1
2016-Aug-24 00:33N 22°19' E 114°09'2 1.6
2016-Aug-23 23:10N 22°17' E 114°07'2 0.3
2016-Aug-23 15:33N 22°17' E 114°10'3 2.0
2016-Aug-23 14:12N 22°18' E 114°07'3 1.6
2016-Aug-23 12:34N 22°17' E 114°10'2 1.7
2016-Aug-23 11:28N 22°18' E 114°08'0 0.1
2016-Aug-23 10:11N 22°18' E 114°07'2 2.8
2016-Aug-23 09:33N 22°18' E 114°09'0 0.1
2016-Aug-23 00:33N 22°19' E 114°09'2 1.3
2016-Aug-22 23:09N 22°18' E 114°08'2 0.3
2016-Aug-22 15:33N 22°17' E 114°10'2 1.3
2016-Aug-22 14:10N 22°18' E 114°08'2 2.9
2016-Aug-22 13:33N 22°17' E 114°10'0 0.1
2016-Aug-22 12:32N 22°17' E 114°10'3 2.3
2016-Aug-22 11:26N 22°17' E 114°07'1 0.7
2016-Aug-22 10:09N 22°18' E 114°08'2 0.2
2016-Aug-22 00:34N 22°19' E 114°09'2 1.6
2016-Aug-21 23:10N 22°18' E 114°07'2 0.3
2016-Aug-21 15:30N 22°17' E 114°10'0 0.0
2016-Aug-21 13:33N 22°17' E 114°10'0 0.0
2016-Aug-21 11:27N 22°17' E 114°10'0 0.0
2016-Aug-21 09:33N 22°17' E 114°10'0 0.0
2016-Aug-21 07:11N 22°17' E 114°10'0 0.0
2016-Aug-21 05:32N 22°17' E 114°10'2 1.5
2016-Aug-21 04:16N 22°18' E 114°08'2 0.5
2016-Aug-21 00:33N 22°17' E 114°10'2 1.2
2016-Aug-20 23:08N 22°18' E 114°08'2 0.2
2016-Aug-20 15:33N 22°17' E 114°10'2 1.6
2016-Aug-20 14:12N 22°18' E 114°07'1 1.3
2016-Aug-20 13:33N 22°18' E 114°08'1 0.6
2016-Aug-20 11:33N 22°17' E 114°10'2 1.3
2016-Aug-20 10:10N 22°18' E 114°08'2 3.6
2016-Aug-20 09:33N 22°17' E 114°10'0 0.2
2016-Aug-20 07:32N 22°17' E 114°10'3 1.8
2016-Aug-20 06:04N 22°17' E 114°07'3 5.8
2016-Aug-20 05:34N 22°17' E 114°10'0 0.1
2016-Aug-20 03:33N 22°17' E 114°10'0 0.0
2016-Aug-20 01:33N 22°17' E 114°10'2 1.8
2016-Aug-20 00:33N 22°19' E 114°09'2 1.4
2016-Aug-19 23:10N 22°18' E 114°08'2 0.3
2016-Aug-19 15:34N 22°17' E 114°10'2 1.7
2016-Aug-19 14:11N 22°17' E 114°07'2 1.4
2016-Aug-19 12:32N 22°17' E 114°10'3 2.4
2016-Aug-19 11:26N 22°17' E 114°07'4 0.6
2016-Aug-19 05:33N 22°17' E 114°11'1 0.5
2016-Aug-19 03:32N 22°17' E 114°10'0 0.2
2016-Aug-19 01:32N 22°17' E 114°10'1 1.5
2016-Aug-19 00:32N 22°18' E 114°09'2 1.3
2016-Aug-18 23:09N 22°18' E 114°08'2 0.3
2016-Aug-18 15:32N 22°17' E 114°10'3 2.0
2016-Aug-18 14:12N 22°17' E 114°07'3 4.1
2016-Aug-18 13:34N 22°17' E 114°10'0 0.0
2016-Aug-18 12:33N 22°17' E 114°10'2 2.0
2016-Aug-18 11:26N 22°18' E 114°07'0 0.4
2016-Aug-18 10:10N 22°18' E 114°08'2 3.1
2016-Aug-18 09:33N 22°19' E 114°09'1 0.3
2016-Aug-18 06:31N 22°20' E 114°09'0 0.0
2016-Aug-18 04:12N 22°20' E 114°09'1 0.3
2016-Aug-18 00:33N 22°19' E 114°09'2 1.4
2016-Aug-17 23:09N 22°18' E 114°07'  

Dump ship's entire track history